createdAt,value
2024-02-04T00:04:32.786Z,12.4
2024-02-04T00:09:35.825Z,13.6
2024-02-04T00:13:59.331Z,18.3
2024-02-04T00:15:59.514Z,18.3
2024-02-04T00:17:05.589Z,18.2
2024-02-04T00:22:26.303Z,21.8
2024-02-04T00:24:29.264Z,21.8
2024-02-04T00:25:45.434Z,21.8
2024-02-04T00:28:34.072Z,14.3
2024-02-04T00:32:09.751Z,20.5
2024-02-04T00:37:07.801Z,19.1
2024-02-04T00:42:08.125Z,20.2
2024-02-04T00:47:08.662Z,17.2
2024-02-04T00:52:09.312Z,17.5
2024-02-04T00:57:09.744Z,12.7
2024-02-04T01:02:10.327Z,12.8
2024-02-04T01:07:14.209Z,9.7
2024-02-04T01:12:11.363Z,18.5
2024-02-04T01:17:11.920Z,19.0
2024-02-04T01:22:12.483Z,13.1
2024-02-04T01:27:13.117Z,8.0
2024-02-04T01:32:13.599Z,20.3
2024-02-04T01:37:14.170Z,17.8
2024-02-04T01:42:14.738Z,27.0
2024-02-04T01:47:15.372Z,20.9
2024-02-04T01:52:15.832Z,20.5
2024-02-04T01:57:16.474Z,14.5
2024-02-04T02:02:17.037Z,16.8
2024-02-04T02:07:17.741Z,23.4
2024-02-04T02:12:18.062Z,21.6
2024-02-04T02:17:18.876Z,15.6
2024-02-04T02:22:19.143Z,28.5
2024-02-04T02:27:19.681Z,21.1
2024-02-04T02:32:20.477Z,25.5
2024-02-04T02:37:20.747Z,21.0
2024-02-04T02:42:21.328Z,31.8
2024-02-04T02:47:21.842Z,18.1
2024-02-04T02:52:22.343Z,12.8
2024-02-04T02:57:22.982Z,21.1
2024-02-04T03:02:23.448Z,23.8
2024-02-04T03:07:23.921Z,18.8
2024-02-04T03:12:24.469Z,15.6
2024-02-04T03:17:25.036Z,18.0
2024-02-04T03:22:25.548Z,13.3
2024-02-04T03:27:26.207Z,12.8
2024-02-04T03:32:26.790Z,26.7
2024-02-04T03:37:27.048Z,12.7
2024-02-04T03:42:27.648Z,14.5
2024-02-04T03:47:28.241Z,20.1
2024-02-04T03:52:28.687Z,10.7
2024-02-04T03:57:29.197Z,14.7
2024-02-04T04:02:29.729Z,12.0
2024-02-04T04:07:30.221Z,13.2
2024-02-04T04:12:30.756Z,12.5
2024-02-04T04:17:31.355Z,10.5
2024-02-04T04:22:31.792Z,19.8
2024-02-04T04:27:32.330Z,20.1
2024-02-04T04:32:33.227Z,17.1
2024-02-04T04:37:33.370Z,16.0
2024-02-04T04:42:34.006Z,19.6
2024-02-04T04:47:35.149Z,18.7
2024-02-04T04:52:35.134Z,7.3
2024-02-04T04:57:35.672Z,15.1
2024-02-04T05:02:36.193Z,18.8
2024-02-04T05:06:07.200Z,18.8
2024-02-04T05:07:37.995Z,21.7
2024-02-04T05:10:18.728Z,21.7
2024-02-04T05:12:38.950Z,13.1
2024-02-04T05:14:42.768Z,13.1
2024-02-04T05:17:34.812Z,13.1
2024-02-04T05:17:39.263Z,23.1
2024-02-04T05:18:44.536Z,23.1
2024-02-04T05:21:05.537Z,23.1
2024-02-04T05:22:38.255Z,19.4
2024-02-04T05:24:34.997Z,19.4
2024-02-04T05:27:15.720Z,19.4
2024-02-04T05:27:50.892Z,19.0
2024-02-04T05:32:39.544Z,25.4
2024-02-04T05:37:39.874Z,14.3
2024-02-04T05:42:40.480Z,17.9
2024-02-04T05:47:41.043Z,27.0
2024-02-04T05:52:41.474Z,12.4
2024-02-04T05:57:42.059Z,15.0
2024-02-04T06:02:42.762Z,15.0
2024-02-04T06:07:43.137Z,21.1
2024-02-04T06:12:43.693Z,14.6
2024-02-04T06:17:44.345Z,16.8
2024-02-04T06:22:44.751Z,18.5
2024-02-04T06:27:45.404Z,19.1
2024-02-04T06:32:46.167Z,19.4
2024-02-04T06:37:46.415Z,16.9
2024-02-04T06:42:47.056Z,14.4
2024-02-04T06:47:47.721Z,18.8
2024-02-04T06:52:48.193Z,20.8
2024-02-04T06:57:48.875Z,20.7
2024-02-04T07:02:49.471Z,20.9
2024-02-04T07:07:49.909Z,15.0
2024-02-04T07:12:50.541Z,28.1
2024-02-04T07:17:51.130Z,20.3
2024-02-04T07:22:51.656Z,16.2
2024-02-04T07:27:52.220Z,20.2
2024-02-04T07:32:53.321Z,20.6
2024-02-04T07:37:53.317Z,21.0
2024-02-04T07:42:53.937Z,17.0
2024-02-04T07:47:54.689Z,15.5
2024-02-04T07:52:54.995Z,19.7
2024-02-04T07:57:55.745Z,20.0
2024-02-04T08:02:56.223Z,19.4
2024-02-04T08:07:56.868Z,24.3
2024-02-04T08:12:57.465Z,13.1
2024-02-04T08:17:58.028Z,27.0
2024-02-04T08:22:58.526Z,23.5
2024-02-04T08:27:59.630Z,24.9
2024-02-04T08:32:59.963Z,16.7
2024-02-04T08:38:00.228Z,20.1
2024-02-04T08:43:00.876Z,21.6
2024-02-04T08:48:01.481Z,22.8
2024-02-04T08:53:01.868Z,30.6
2024-02-04T08:58:02.580Z,21.3
2024-02-04T09:03:03.053Z,18.9
2024-02-04T09:08:03.680Z,16.8
2024-02-04T09:13:04.293Z,22.0
2024-02-04T09:18:05.300Z,21.2
2024-02-04T09:23:05.340Z,15.5
2024-02-04T09:28:05.911Z,26.2
2024-02-04T09:33:06.745Z,23.5
2024-02-04T09:38:09.051Z,19.9
2024-02-04T09:43:07.672Z,28.9
2024-02-04T09:48:08.943Z,16.6
2024-02-04T09:53:08.946Z,15.8
2024-02-04T09:58:09.359Z,21.5
2024-02-04T10:03:09.898Z,18.2
2024-02-04T10:08:10.476Z,14.1
2024-02-04T10:13:10.968Z,20.5
2024-02-04T10:18:11.711Z,21.9
2024-02-04T10:23:12.056Z,18.0
2024-02-04T10:28:12.708Z,18.3
2024-02-04T10:33:13.545Z,22.0
2024-02-04T10:38:13.746Z,19.9
2024-02-04T10:43:14.426Z,24.0
2024-02-04T10:48:14.973Z,16.1
2024-02-04T10:53:15.550Z,16.4
2024-02-04T10:58:16.154Z,16.1
2024-02-04T11:03:16.635Z,13.1
2024-02-04T11:08:17.100Z,15.2
2024-02-04T11:13:17.668Z,20.0
2024-02-04T11:18:18.359Z,12.6
2024-02-04T11:23:18.675Z,11.0
2024-02-04T11:28:19.200Z,15.9
2024-02-04T11:33:20.276Z,14.0
2024-02-04T11:38:20.237Z,16.1
2024-02-04T11:43:20.740Z,12.7
2024-02-04T11:48:21.432Z,12.3
2024-02-04T11:53:21.801Z,10.6
2024-02-04T11:58:22.307Z,7.0
2024-02-04T12:03:22.881Z,7.8
2024-02-04T12:08:23.369Z,9.1
2024-02-04T12:13:23.787Z,9.8
2024-02-04T12:18:24.561Z,10.6
2024-02-04T12:23:25.060Z,11.3
2024-02-04T12:28:25.399Z,8.6
2024-02-04T12:33:26.310Z,7.6
2024-02-04T12:38:26.471Z,8.9
2024-02-04T12:43:27.115Z,11.6
2024-02-04T12:48:27.819Z,8.7
2024-02-04T12:53:28.024Z,7.4
2024-02-04T12:58:28.577Z,5.6
2024-02-04T13:03:29.181Z,8.9
2024-02-04T13:08:30.765Z,6.8
2024-02-04T13:13:30.258Z,11.1
2024-02-04T13:18:30.795Z,7.0
2024-02-04T13:23:31.171Z,13.8
2024-02-04T13:28:31.672Z,11.5
2024-02-04T13:33:32.714Z,9.6
2024-02-04T13:38:32.737Z,21.6
2024-02-04T13:43:33.265Z,11.9
2024-02-04T13:48:34.004Z,11.6
2024-02-04T13:53:34.237Z,9.1
2024-02-04T13:58:34.834Z,11.9
2024-02-04T14:03:35.420Z,10.5
2024-02-04T14:08:35.910Z,10.5
2024-02-04T14:13:36.380Z,10.1
2024-02-04T14:18:36.903Z,9.9
2024-02-04T14:23:37.442Z,9.4
2024-02-04T14:28:37.906Z,13.9
2024-02-04T14:33:38.603Z,14.7
2024-02-04T14:38:38.922Z,11.8
2024-02-04T14:43:39.535Z,8.0
2024-02-04T14:48:43.278Z,12.6
2024-02-04T14:53:40.577Z,9.8
2024-02-04T14:58:41.044Z,11.5
2024-02-04T15:03:41.732Z,9.0
2024-02-04T15:08:42.202Z,9.4
2024-02-04T15:13:42.626Z,8.0
2024-02-04T15:18:43.241Z,20.0
2024-02-04T15:23:43.684Z,16.6
2024-02-04T15:28:44.212Z,12.2
2024-02-04T15:33:45.342Z,14.0
2024-02-04T15:38:45.311Z,5.7
2024-02-04T15:43:45.786Z,6.5
2024-02-04T15:48:46.526Z,8.9
2024-02-04T15:53:46.896Z,9.6
2024-02-04T15:58:47.379Z,12.0
2024-02-04T16:03:48.155Z,13.9
2024-02-04T16:08:48.353Z,10.3
2024-02-04T16:13:48.768Z,12.8
2024-02-04T16:18:49.580Z,12.7
2024-02-04T16:23:49.922Z,12.3
2024-02-04T16:28:50.380Z,11.1
2024-02-04T16:33:51.108Z,10.8
2024-02-04T16:38:51.348Z,6.3
2024-02-04T16:43:51.829Z,9.6
2024-02-04T16:48:52.521Z,18.7
2024-02-04T16:53:52.787Z,7.2
2024-02-04T16:58:53.349Z,13.4
2024-02-04T17:03:53.894Z,10.7
2024-02-04T17:08:54.351Z,10.4
2024-02-04T17:13:54.789Z,10.5
2024-02-04T17:18:55.420Z,8.9
2024-02-04T17:23:55.820Z,7.3
2024-02-04T17:28:56.372Z,8.1
2024-02-04T17:33:57.233Z,8.4
2024-02-04T17:38:57.371Z,10.7
2024-02-04T17:43:57.932Z,7.5
2024-02-04T17:48:58.710Z,7.6
2024-02-04T17:53:58.866Z,8.4
2024-02-04T17:58:59.360Z,7.4
2024-02-04T18:04:00.031Z,9.3
2024-02-04T18:09:00.812Z,11.1
2024-02-04T18:14:00.922Z,11.0
2024-02-04T18:19:01.605Z,8.1
2024-02-04T18:24:01.930Z,13.5
2024-02-04T18:29:02.980Z,9.7
2024-02-04T18:34:03.258Z,8.1
2024-02-04T18:39:03.528Z,10.3
2024-02-04T18:44:04.157Z,8.9
2024-02-04T18:54:04.940Z,6.4
2024-02-04T18:59:05.495Z,10.9
2024-02-04T19:04:06.759Z,4.2
2024-02-04T19:09:06.484Z,3.8
2024-02-04T19:14:08.156Z,9.5
2024-02-04T19:17:41.329Z,9.5
2024-02-04T19:19:07.524Z,5.2
2024-02-04T19:21:45.699Z,5.2
2024-02-04T19:24:07.928Z,6.2
2024-02-04T19:29:09.673Z,10.8
2024-02-04T19:33:26.444Z,10.8
2024-02-04T19:34:09.512Z,4.9
2024-02-04T19:39:09.541Z,6.4
2024-02-04T19:40:36.486Z,6.4
2024-02-04T19:44:10.060Z,11.0
2024-02-04T19:49:25.344Z,13.9
2024-02-04T19:52:19.923Z,13.9
2024-02-04T19:54:26.010Z,9.1
2024-02-04T19:55:41.319Z,9.1
2024-02-04T19:59:12.914Z,9.4
2024-02-04T20:01:25.355Z,9.4
2024-02-04T20:04:12.186Z,9.3
2024-02-04T20:09:14.010Z,7.9
2024-02-04T20:14:14.226Z,9.4
2024-02-04T20:19:19.770Z,7.1
2024-02-04T20:23:24.537Z,7.1
2024-02-04T20:24:14.180Z,6.7
2024-02-04T20:26:48.283Z,6.7
2024-02-04T20:29:14.707Z,8.5
2024-02-04T20:34:16.462Z,6.2
2024-02-04T20:39:15.730Z,4.4
2024-02-04T20:43:08.391Z,4.4
2024-02-04T20:44:16.271Z,4.7
2024-02-04T20:49:16.891Z,5.1
2024-02-04T20:53:06.686Z,5.1
2024-02-04T20:58:09.492Z,7.9
2024-02-04T21:00:05.340Z,8.9
2024-02-04T21:01:54.252Z,8.9
2024-02-04T21:04:18.723Z,7.4
2024-02-04T21:08:00.980Z,7.4
2024-02-04T21:08:59.516Z,7.4
2024-02-04T21:09:31.171Z,5.0
2024-02-04T21:14:19.600Z,3.4
2024-02-04T21:19:20.146Z,7.8
2024-02-04T21:24:20.620Z,4.8
2024-02-04T21:29:21.022Z,4.9
2024-02-04T21:34:21.641Z,11.1
2024-02-04T21:38:46.043Z,11.1
2024-02-04T21:39:22.345Z,6.3
2024-02-04T21:40:06.610Z,6.3
2024-02-04T21:42:40.920Z,6.3
2024-02-04T21:44:23.924Z,5.1
2024-02-04T21:49:33.964Z,6.5
2024-02-04T21:50:43.518Z,6.5
2024-02-04T21:54:26.593Z,6.2
2024-02-04T21:59:24.437Z,9.4
2024-02-04T22:04:24.785Z,4.9
2024-02-04T22:08:05.861Z,4.9
2024-02-04T22:09:25.622Z,7.5
2024-02-04T22:12:17.043Z,7.5
